createdAt,value
2023-02-25T00:02:09.471Z,0.84
2023-02-25T00:04:38.021Z,1.07
2023-02-25T00:07:06.355Z,1.06
2023-02-25T00:09:34.744Z,1.02
2023-02-25T00:12:03.066Z,0.97
2023-02-25T00:14:31.371Z,1.12
2023-02-25T00:16:59.856Z,0.99
2023-02-25T00:19:29.627Z,1.03
2023-02-25T00:21:58.210Z,1.09
2023-02-25T00:24:26.545Z,0.96
2023-02-25T00:26:55.216Z,1.15
2023-02-25T00:29:23.713Z,0.93
2023-02-25T00:31:52.141Z,1.11
2023-02-25T00:34:20.704Z,1.02
2023-02-25T00:36:51.188Z,1.14
2023-02-25T00:39:19.522Z,1.02
2023-02-25T00:41:47.951Z,0.76
2023-02-25T00:44:16.608Z,0.98
2023-02-25T00:46:45.579Z,1.05
2023-02-25T00:49:23.883Z,1.16
2023-02-25T00:52:01.774Z,1.07
2023-02-25T00:54:30.342Z,1.04
2023-02-25T00:56:58.651Z,0.24
2023-02-25T00:59:27.116Z,0.67
2023-02-25T01:01:55.763Z,1.09
2023-02-25T01:04:24.060Z,1.12
2023-02-25T01:06:54.328Z,1.14
2023-02-25T01:09:24.187Z,1.28
2023-02-25T01:11:53.120Z,0.90
2023-02-25T01:14:23.562Z,0.98
2023-02-25T01:16:52.731Z,0.72
2023-02-25T01:19:23.610Z,1.11
2023-02-25T01:21:54.294Z,0.84
2023-02-25T01:24:25.600Z,1.03
2023-02-25T01:26:57.050Z,1.22
2023-02-25T01:29:27.509Z,0.99
2023-02-25T01:31:57.617Z,1.21
2023-02-25T01:34:26.587Z,1.07
2023-02-25T01:36:54.925Z,1.01
2023-02-25T01:39:26.748Z,1.02
2023-02-25T01:41:56.934Z,1.09
2023-02-25T01:44:30.870Z,1.24
2023-02-25T01:46:59.728Z,1.01
2023-02-25T01:49:34.307Z,0.36
2023-02-25T01:52:06.149Z,1.28
2023-02-25T01:54:37.530Z,1.14
2023-02-25T01:57:09.845Z,1.00
2023-02-25T01:59:39.517Z,1.01
2023-02-25T02:02:09.727Z,0.74
2023-02-25T02:04:39.577Z,0.97
2023-02-25T02:07:08.071Z,0.99
2023-02-25T02:09:40.527Z,0.90
2023-02-25T02:12:10.038Z,0.85
2023-02-25T02:14:43.429Z,1.00
2023-02-25T02:17:21.813Z,1.03
2023-02-25T02:20:13.339Z,1.03
2023-02-25T02:22:55.676Z,0.93
2023-02-25T02:26:09.453Z,0.09
2023-02-25T02:29:14.256Z,0.78
2023-02-25T02:32:08.288Z,0.74
2023-02-25T02:34:46.777Z,0.61
2023-02-25T02:37:26.401Z,0.90
2023-02-25T02:40:05.900Z,0.82
2023-02-25T02:42:41.892Z,0.71
2023-02-25T02:45:14.969Z,1.01
2023-02-25T02:47:47.801Z,0.89
2023-02-25T02:50:22.415Z,0.90
2023-02-25T02:52:55.480Z,0.93
2023-02-25T02:55:28.523Z,1.01
2023-02-25T02:58:01.997Z,0.83
2023-02-25T03:00:36.215Z,0.82
2023-02-25T03:03:09.899Z,0.60
2023-02-25T03:05:39.385Z,0.85
2023-02-25T03:08:12.580Z,0.84
2023-02-25T03:10:40.933Z,0.56
2023-02-25T03:13:09.314Z,0.68
2023-02-25T03:15:40.248Z,0.90
2023-02-25T03:18:17.121Z,0.99
2023-02-25T03:20:49.567Z,1.14
2023-02-25T03:23:22.027Z,1.16
2023-02-25T03:25:53.171Z,0.95
2023-02-25T03:28:27.335Z,1.00
2023-02-25T03:31:03.105Z,1.06
2023-02-25T03:33:38.850Z,1.02
2023-02-25T03:36:13.371Z,1.10
2023-02-25T03:38:46.461Z,0.83
2023-02-25T03:41:16.745Z,0.94
2023-02-25T03:43:49.898Z,0.76
2023-02-25T03:46:21.806Z,0.42
2023-02-25T03:48:52.953Z,0.83
2023-02-25T03:51:25.289Z,0.77
2023-02-25T03:53:53.733Z,0.66
2023-02-25T03:56:22.706Z,0.86
2023-02-25T03:58:51.154Z,0.95
2023-02-25T04:01:24.649Z,0.72
2023-02-25T04:03:54.343Z,0.60
2023-02-25T04:06:24.281Z,0.69
2023-02-25T04:08:53.425Z,0.85
2023-02-25T04:11:21.852Z,0.85
2023-02-25T04:13:50.152Z,0.94
2023-02-25T04:16:18.550Z,0.59
2023-02-25T04:18:46.938Z,0.67
2023-02-25T04:21:27.614Z,0.63
2023-02-25T04:23:55.954Z,0.57
2023-02-25T04:26:24.728Z,0.79
2023-02-25T04:28:53.391Z,0.71
2023-02-25T04:31:22.007Z,0.61
2023-02-25T04:33:50.689Z,0.45
2023-02-25T04:36:32.369Z,0.72
2023-02-25T04:39:02.851Z,0.72
2023-02-25T04:41:33.377Z,0.66
2023-02-25T04:44:04.090Z,0.76
2023-02-25T04:46:33.119Z,0.79
2023-02-25T04:49:02.015Z,0.74
2023-02-25T04:51:32.053Z,0.80
2023-02-25T04:54:00.617Z,0.86
2023-02-25T04:56:29.593Z,0.53
2023-02-25T04:58:59.340Z,0.83
2023-02-25T05:01:28.172Z,0.67
2023-02-25T05:03:57.267Z,0.36
2023-02-25T05:06:26.209Z,0.90
2023-02-25T05:08:57.808Z,0.57
2023-02-25T05:11:28.131Z,0.94
2023-02-25T05:13:57.360Z,0.50
2023-02-25T05:16:26.987Z,0.75
2023-02-25T05:18:55.969Z,1.04
2023-02-25T05:21:27.032Z,0.52
2023-02-25T05:23:57.134Z,0.87
2023-02-25T05:26:26.686Z,0.65
2023-02-25T05:28:56.385Z,0.79
2023-02-25T05:31:26.260Z,0.77
2023-02-25T05:33:55.156Z,0.92
2023-02-25T05:36:27.463Z,0.91
2023-02-25T05:39:03.022Z,0.97
2023-02-25T05:41:31.998Z,0.77
2023-02-25T05:44:00.275Z,0.78
2023-02-25T05:46:28.679Z,0.88
2023-02-25T05:48:57.090Z,0.70
2023-02-25T05:51:25.352Z,0.95
2023-02-25T05:53:54.370Z,0.85
2023-02-25T05:56:30.234Z,0.86
2023-02-25T05:59:00.505Z,0.68
2023-02-25T06:01:30.653Z,1.04
2023-02-25T06:03:59.806Z,0.55
2023-02-25T06:06:30.720Z,0.88
2023-02-25T06:08:59.296Z,0.77
2023-02-25T06:11:32.515Z,0.77
2023-02-25T06:14:01.750Z,0.75
2023-02-25T06:16:32.837Z,0.66
2023-02-25T06:19:02.693Z,0.61
2023-02-25T06:21:31.502Z,0.36
2023-02-25T06:24:00.182Z,0.54
2023-02-25T06:26:30.388Z,0.51
2023-02-25T06:28:59.163Z,0.58
2023-02-25T06:31:27.706Z,0.52
2023-02-25T06:33:56.364Z,0.58
2023-02-25T06:36:25.193Z,0.61
2023-02-25T06:38:53.691Z,0.69
2023-02-25T06:41:23.799Z,0.65
2023-02-25T06:43:53.859Z,0.91
2023-02-25T06:46:26.091Z,0.77
2023-02-25T06:48:55.752Z,0.79
2023-02-25T06:51:24.185Z,0.84
2023-02-25T06:53:53.423Z,0.92
2023-02-25T06:56:22.633Z,0.89
2023-02-25T06:58:53.933Z,0.93
2023-02-25T07:01:22.595Z,1.06
2023-02-25T07:03:51.088Z,1.00
2023-02-25T07:06:20.100Z,1.00
2023-02-25T07:08:48.587Z,1.02
2023-02-25T07:11:29.535Z,1.09
2023-02-25T07:13:59.548Z,1.08
2023-02-25T07:16:30.083Z,1.10
2023-02-25T07:19:02.332Z,1.12
2023-02-25T07:21:31.217Z,1.16
2023-02-25T07:24:00.043Z,1.14
2023-02-25T07:26:29.943Z,1.06
2023-02-25T07:29:00.804Z,1.08
2023-02-25T07:31:29.892Z,0.97
2023-02-25T07:34:03.476Z,1.09
2023-02-25T07:36:33.232Z,1.12
2023-02-25T07:39:02.244Z,1.04
2023-02-25T07:41:30.596Z,1.21
2023-02-25T07:44:01.198Z,1.20
2023-02-25T07:46:29.813Z,1.27
2023-02-25T07:48:58.539Z,1.32
2023-02-25T07:51:27.976Z,1.36
2023-02-25T07:53:58.336Z,0.96
2023-02-25T07:56:28.580Z,1.32
2023-02-25T07:58:56.910Z,1.31
2023-02-25T08:01:29.948Z,1.51
2023-02-25T08:04:01.328Z,1.49
2023-02-25T08:06:29.856Z,1.53
2023-02-25T08:08:58.445Z,1.45
2023-02-25T08:11:28.152Z,1.54
2023-02-25T08:13:56.466Z,1.34
2023-02-25T08:16:26.311Z,1.36
2023-02-25T08:18:55.272Z,1.59
2023-02-25T08:21:25.142Z,1.53
2023-02-25T08:23:54.595Z,1.52
2023-02-25T08:26:23.654Z,1.64
2023-02-25T08:28:53.009Z,1.58
2023-02-25T08:31:22.778Z,1.56
2023-02-25T08:33:53.990Z,1.59
2023-02-25T08:36:24.831Z,1.67
2023-02-25T08:38:54.293Z,1.54
2023-02-25T08:41:23.972Z,1.63
2023-02-25T08:43:54.820Z,1.66
2023-02-25T08:46:24.006Z,1.34
2023-02-25T08:48:55.096Z,1.86
2023-02-25T08:51:34.581Z,1.92
2023-02-25T08:54:05.271Z,2.04
2023-02-25T08:56:35.350Z,1.57
2023-02-25T08:59:04.088Z,1.79
2023-02-25T09:01:45.142Z,1.77
2023-02-25T09:04:16.273Z,1.50
2023-02-25T09:06:47.446Z,1.42
2023-02-25T09:09:16.312Z,1.18
2023-02-25T09:11:45.888Z,1.19
2023-02-25T09:14:15.148Z,1.03
2023-02-25T09:16:43.665Z,0.82
2023-02-25T09:19:12.953Z,0.77
2023-02-25T09:21:43.045Z,0.74
2023-02-25T09:24:11.873Z,0.61
2023-02-25T09:26:40.293Z,0.40
2023-02-25T09:29:09.480Z,0.41
2023-02-25T09:31:39.750Z,0.48
2023-02-25T09:34:10.079Z,0.42
2023-02-25T09:36:38.399Z,0.43
2023-02-25T09:39:10.532Z,0.64
2023-02-25T09:41:48.702Z,0.65
2023-02-25T09:44:21.010Z,0.69
2023-02-25T09:46:53.820Z,0.87
2023-02-25T09:49:28.958Z,0.99
2023-02-25T09:52:02.485Z,1.04
2023-02-25T09:54:39.586Z,1.12
2023-02-25T09:57:09.193Z,1.13
2023-02-25T09:59:37.909Z,1.17
2023-02-25T10:02:22.729Z,1.19
2023-02-25T10:05:05.028Z,1.28
2023-02-25T10:07:37.558Z,1.27
2023-02-25T10:10:14.880Z,1.29
2023-02-25T10:12:54.882Z,1.39
2023-02-25T10:15:38.175Z,1.22
2023-02-25T10:18:20.839Z,1.18
2023-02-25T10:20:58.276Z,1.20
2023-02-25T10:23:38.018Z,1.22
2023-02-25T10:26:15.478Z,0.92
2023-02-25T10:28:46.704Z,0.77
2023-02-25T10:31:19.068Z,1.22
2023-02-25T10:33:50.689Z,1.20
2023-02-25T10:36:22.795Z,1.25
2023-02-25T10:38:54.396Z,1.25
2023-02-25T10:41:26.875Z,1.22
2023-02-25T10:43:56.705Z,1.27
2023-02-25T10:46:31.521Z,1.24
2023-02-25T10:49:01.533Z,1.23
2023-02-25T10:51:30.471Z,1.26
2023-02-25T10:54:08.538Z,1.34
2023-02-25T10:56:44.845Z,1.37
2023-02-25T10:59:30.199Z,0.91
2023-02-25T11:02:01.590Z,1.32
2023-02-25T11:04:36.010Z,1.30
2023-02-25T11:07:25.923Z,1.27
2023-02-25T11:10:10.335Z,1.21
2023-02-25T11:12:44.289Z,1.24
2023-02-25T11:15:44.890Z,1.24
2023-02-25T11:18:22.177Z,1.11
2023-02-25T11:20:54.758Z,1.11
2023-02-25T11:23:28.149Z,1.13
2023-02-25T11:25:57.827Z,1.06
2023-02-25T11:28:32.641Z,1.10
2023-02-25T11:31:20.296Z,1.16
2023-02-25T11:33:54.569Z,1.13
2023-02-25T11:36:25.282Z,1.08
2023-02-25T11:39:09.160Z,1.01
2023-02-25T11:41:37.483Z,1.06
2023-02-25T11:44:29.368Z,1.10
2023-02-25T11:47:03.643Z,1.00
2023-02-25T11:49:52.802Z,1.23
2023-02-25T11:52:27.876Z,1.01
2023-02-25T11:55:08.958Z,0.95
2023-02-25T11:57:47.213Z,0.87
2023-02-25T12:00:26.268Z,0.74
2023-02-25T12:03:11.840Z,0.41
2023-02-25T12:05:53.457Z,0.14
2023-02-25T12:08:47.188Z,0.07
2023-02-25T12:11:56.566Z,0.18
2023-02-25T12:15:12.659Z,0.24
2023-02-25T12:18:13.398Z,0.44
2023-02-25T12:21:19.389Z,0.69
2023-02-25T12:24:22.943Z,0.90
2023-02-25T12:27:28.119Z,1.26
2023-02-25T12:30:21.996Z,1.36
2023-02-25T12:33:04.162Z,1.55
2023-02-25T12:36:04.741Z,1.36
2023-02-25T12:39:06.169Z,1.32
2023-02-25T12:41:41.950Z,1.42
2023-02-25T12:44:45.752Z,1.28
2023-02-25T12:47:31.747Z,1.19
2023-02-25T12:50:35.748Z,1.25
2023-02-25T12:53:33.966Z,1.06
2023-02-25T12:56:24.931Z,1.23
2023-02-25T12:59:18.694Z,1.32
2023-02-25T13:02:13.866Z,1.36
2023-02-25T13:04:57.832Z,1.42
2023-02-25T13:07:49.091Z,1.34
2023-02-25T13:10:39.373Z,1.41
2023-02-25T13:13:55.445Z,1.49
2023-02-25T13:16:36.608Z,1.46
2023-02-25T13:19:26.951Z,1.43
2023-02-25T13:22:05.331Z,1.32
2023-02-25T13:24:47.076Z,1.48
2023-02-25T13:27:55.840Z,1.50
2023-02-25T13:30:58.185Z,1.36
2023-02-25T13:33:46.282Z,1.50
2023-02-25T13:36:34.209Z,1.35
2023-02-25T13:39:23.320Z,1.12
2023-02-25T13:42:11.642Z,1.35
2023-02-25T13:44:58.285Z,1.38
2023-02-25T13:47:43.825Z,1.37
2023-02-25T13:50:50.495Z,1.31
2023-02-25T13:53:46.149Z,1.17
2023-02-25T13:56:43.981Z,1.11
2023-02-25T13:59:36.500Z,0.96
2023-02-25T14:02:32.023Z,0.85
2023-02-25T14:05:37.602Z,0.94
2023-02-25T14:08:26.105Z,0.88
2023-02-25T14:11:07.364Z,0.88
2023-02-25T14:13:59.314Z,0.79
2023-02-25T14:16:54.037Z,1.12
2023-02-25T14:19:35.896Z,0.92
2023-02-25T14:22:36.097Z,0.86
2023-02-25T14:25:20.038Z,0.69
2023-02-25T14:28:00.547Z,0.60
2023-02-25T14:30:41.128Z,0.55
2023-02-25T14:33:27.701Z,0.51
2023-02-25T14:36:07.473Z,0.29
2023-02-25T14:39:02.220Z,0.59
2023-02-25T14:41:42.814Z,0.49
2023-02-25T14:44:16.835Z,0.52
2023-02-25T14:46:53.093Z,0.50
2023-02-25T14:49:26.971Z,0.53
2023-02-25T14:52:33.351Z,0.46
2023-02-25T14:55:36.129Z,0.60
2023-02-25T14:58:42.891Z,0.47
2023-02-25T15:01:45.840Z,0.38
2023-02-25T15:04:39.986Z,0.51
2023-02-25T15:07:31.269Z,0.16
2023-02-25T15:10:22.166Z,-0.01
2023-02-25T15:13:14.941Z,-0.08
2023-02-25T15:16:11.705Z,-0.06
2023-02-25T15:19:14.409Z,-0.23
2023-02-25T15:21:46.763Z,-0.39
2023-02-25T15:24:39.637Z,-0.21
2023-02-25T15:27:49.261Z,-0.16
2023-02-25T15:30:20.596Z,-0.36
2023-02-25T15:33:07.912Z,-0.38
2023-02-25T15:35:56.410Z,-0.64
2023-02-25T15:38:42.274Z,-0.81
2023-02-25T15:41:45.754Z,-0.96
2023-02-25T15:44:37.369Z,-1.04
2023-02-25T15:47:33.267Z,-1.23
2023-02-25T15:50:02.429Z,-1.20
2023-02-25T15:52:59.603Z,-1.21
2023-02-25T15:55:41.432Z,-1.28
2023-02-25T15:58:52.407Z,-1.22
2023-02-25T16:01:39.991Z,-1.26
2023-02-25T16:04:29.483Z,-1.35
2023-02-25T16:07:00.403Z,-1.31
2023-02-25T16:09:29.114Z,-1.18
2023-02-25T16:12:06.736Z,-1.11
2023-02-25T16:14:38.197Z,-1.25
2023-02-25T16:17:15.631Z,-1.20
2023-02-25T16:19:47.542Z,-1.43
2023-02-25T16:22:19.415Z,-1.35
2023-02-25T16:24:50.708Z,-1.22
2023-02-25T16:27:33.461Z,-1.15
2023-02-25T16:30:11.209Z,-1.16
2023-02-25T16:32:49.405Z,-1.35
2023-02-25T16:35:25.958Z,-1.03
2023-02-25T16:38:04.046Z,-1.84
2023-02-25T16:40:36.391Z,-1.09
2023-02-25T16:43:07.307Z,-1.04
2023-02-25T16:45:45.693Z,-1.28
2023-02-25T16:48:19.272Z,-1.28
2023-02-25T16:50:48.680Z,-1.21
2023-02-25T16:53:20.882Z,-1.19
2023-02-25T16:55:49.703Z,-1.10
2023-02-25T16:58:25.497Z,-1.15
2023-02-25T17:00:55.486Z,-1.14
2023-02-25T17:03:26.090Z,-1.15
2023-02-25T17:06:04.169Z,-1.11
2023-02-25T17:08:32.494Z,-1.19
2023-02-25T17:11:02.860Z,-1.26
2023-02-25T17:13:35.787Z,-1.40
2023-02-25T17:16:06.828Z,-1.54
2023-02-25T17:18:40.235Z,-0.92
2023-02-25T17:21:19.580Z,-1.33
2023-02-25T17:23:48.245Z,-1.28
2023-02-25T17:26:17.891Z,-1.05
2023-02-25T17:28:50.890Z,-1.36
2023-02-25T17:31:20.915Z,-1.37
2023-02-25T17:33:52.882Z,-1.48
2023-02-25T17:36:26.394Z,-1.51
2023-02-25T17:38:56.894Z,-1.59
2023-02-25T17:41:26.553Z,-1.71
2023-02-25T17:43:56.476Z,-1.70
2023-02-25T17:46:29.734Z,-1.71
2023-02-25T17:49:00.484Z,-1.74
2023-02-25T17:51:33.312Z,-1.78
2023-02-25T17:54:06.629Z,-2.12
2023-02-25T17:56:36.746Z,-1.87
2023-02-25T17:59:08.616Z,-1.92
2023-02-25T18:01:59.200Z,-2.06
2023-02-25T18:04:35.899Z,-2.00
2023-02-25T18:07:22.385Z,-1.99
2023-02-25T18:09:51.602Z,-2.08
2023-02-25T18:12:25.905Z,-1.99
2023-02-25T18:14:58.827Z,-2.12
2023-02-25T18:17:29.496Z,-2.06
2023-02-25T18:20:00.330Z,-2.13
2023-02-25T18:22:35.231Z,-2.12
2023-02-25T18:25:07.845Z,-2.14
2023-02-25T18:27:38.140Z,-2.14
2023-02-25T18:30:20.569Z,-2.04
2023-02-25T18:32:49.307Z,-1.94
2023-02-25T18:35:18.791Z,-1.85
2023-02-25T18:37:48.859Z,-1.83
2023-02-25T18:40:20.623Z,-1.83
2023-02-25T18:42:48.928Z,-1.78
2023-02-25T18:45:21.232Z,-1.77
2023-02-25T18:47:50.645Z,-1.76
2023-02-25T18:50:20.247Z,-1.71
2023-02-25T18:52:48.674Z,-1.82
2023-02-25T18:55:19.470Z,-1.77
2023-02-25T18:57:48.072Z,-1.84
2023-02-25T19:00:20.885Z,-1.84
2023-02-25T19:02:52.317Z,-1.94
2023-02-25T19:05:22.826Z,-1.90
2023-02-25T19:07:51.495Z,-1.99
2023-02-25T19:10:22.581Z,-1.91
2023-02-25T19:12:52.248Z,-1.94
2023-02-25T19:15:23.184Z,-1.91
2023-02-25T19:17:51.490Z,-1.85
2023-02-25T19:20:21.533Z,-1.88
2023-02-25T19:22:52.032Z,-1.87
2023-02-25T19:25:23.888Z,-2.31
2023-02-25T19:27:53.176Z,-1.99
2023-02-25T19:30:25.273Z,-1.99
2023-02-25T19:32:53.880Z,-2.05
2023-02-25T19:35:22.214Z,-2.02
2023-02-25T19:37:50.566Z,-2.08
2023-02-25T19:40:19.125Z,-2.37
2023-02-25T19:42:48.969Z,-2.21
2023-02-25T19:45:19.290Z,-2.37
2023-02-25T19:47:50.090Z,-2.34
2023-02-25T19:50:20.510Z,-2.20
2023-02-25T19:52:48.984Z,-2.19
2023-02-25T19:55:17.684Z,-2.40
2023-02-25T19:57:45.997Z,-2.50
2023-02-25T20:00:16.994Z,-2.49
2023-02-25T20:02:45.786Z,-2.49
2023-02-25T20:05:15.903Z,-2.57
2023-02-25T20:07:44.490Z,-2.64
2023-02-25T20:10:14.195Z,-2.53
2023-02-25T20:12:43.599Z,-2.55
2023-02-25T20:15:14.945Z,-2.50
2023-02-25T20:17:44.350Z,-2.50
2023-02-25T20:20:16.554Z,-2.45
2023-02-25T20:22:45.158Z,-2.35
2023-02-25T20:25:15.248Z,-2.62
2023-02-25T20:27:44.197Z,-2.18
2023-02-25T20:30:15.207Z,-2.12
2023-02-25T20:32:44.528Z,-2.29
2023-02-25T20:35:18.654Z,-2.04
2023-02-25T20:38:14.705Z,-1.98
2023-02-25T20:40:43.308Z,-1.99
2023-02-25T20:43:12.596Z,-1.97
2023-02-25T20:45:41.487Z,-1.96
2023-02-25T20:48:27.653Z,-1.88
2023-02-25T20:50:57.987Z,-1.95
2023-02-25T20:53:26.717Z,-1.95
2023-02-25T20:55:58.199Z,-1.94
2023-02-25T20:58:26.554Z,-1.92
2023-02-25T21:00:54.971Z,-1.85
2023-02-25T21:03:23.266Z,-1.75
2023-02-25T21:05:51.517Z,-1.75
2023-02-25T21:08:21.227Z,-1.72
2023-02-25T21:10:50.043Z,-1.81
2023-02-25T21:13:18.357Z,-1.77
2023-02-25T21:15:46.630Z,-1.81
2023-02-25T21:18:14.940Z,-2.06
2023-02-25T21:20:43.361Z,-1.83
2023-02-25T21:23:11.631Z,-1.94
2023-02-25T21:25:41.354Z,-1.87
2023-02-25T21:28:09.645Z,-1.89
2023-02-25T21:30:39.443Z,-2.01
2023-02-25T21:33:08.435Z,-2.13
2023-02-25T21:35:36.865Z,-2.02
2023-02-25T21:38:05.332Z,-2.07
2023-02-25T21:40:34.367Z,-2.49
2023-02-25T21:43:04.627Z,-2.09
2023-02-25T21:45:32.983Z,-2.18
2023-02-25T21:48:01.566Z,-1.99
2023-02-25T21:50:29.959Z,-1.81
2023-02-25T21:52:58.431Z,-2.14
2023-02-25T21:55:27.024Z,-2.38
2023-02-25T21:57:55.315Z,-2.60
2023-02-25T22:00:25.359Z,-2.67
2023-02-25T22:02:53.906Z,-2.71
2023-02-25T22:05:22.207Z,-2.74
2023-02-25T22:07:50.969Z,-2.79
2023-02-25T22:10:21.280Z,-2.81
2023-02-25T22:12:50.467Z,-2.78
2023-02-25T22:15:18.845Z,-2.71
2023-02-25T22:17:48.667Z,-2.65
2023-02-25T22:20:17.304Z,-2.57
2023-02-25T22:22:45.618Z,-2.51
2023-02-25T22:25:13.920Z,-2.50
2023-02-25T22:27:42.314Z,-2.40
2023-02-25T22:30:11.616Z,-2.44
2023-02-25T22:32:39.977Z,-2.39
2023-02-25T22:35:10.603Z,-2.39
2023-02-25T22:37:38.899Z,-2.43
2023-02-25T22:40:08.606Z,-2.44
2023-02-25T22:42:36.958Z,-2.39
2023-02-25T22:45:05.762Z,-2.28
2023-02-25T22:47:34.354Z,-2.31
2023-02-25T22:50:02.594Z,-2.31
2023-02-25T22:52:32.321Z,-2.62
2023-02-25T22:55:00.617Z,-2.31
2023-02-25T22:57:28.873Z,-2.26
2023-02-25T22:59:57.208Z,-2.31
2023-02-25T23:02:26.163Z,-2.34
2023-02-25T23:04:54.461Z,-2.27
2023-02-25T23:07:23.285Z,-2.36
2023-02-25T23:09:53.046Z,-2.38
2023-02-25T23:12:21.481Z,-2.47
2023-02-25T23:14:50.143Z,-2.25
2023-02-25T23:17:18.575Z,-2.27
2023-02-25T23:19:46.863Z,-2.22
2023-02-25T23:22:23.477Z,-2.27
2023-02-25T23:24:53.165Z,-2.17
2023-02-25T23:27:21.461Z,-2.25
2023-02-25T23:29:49.767Z,-2.28
2023-02-25T23:32:18.135Z,-2.48
2023-02-25T23:34:48.866Z,-2.26
2023-02-25T23:37:17.441Z,-2.56
2023-02-25T23:39:45.985Z,-2.26
2023-02-25T23:42:15.882Z,-2.26
2023-02-25T23:44:44.239Z,-2.25
2023-02-25T23:47:12.528Z,-2.25
2023-02-25T23:49:40.861Z,-2.25
2023-02-25T23:52:09.524Z,-2.19
2023-02-25T23:54:37.839Z,-2.20
2023-02-25T23:57:06.818Z,-2.60
2023-02-25T23:59:36.901Z,-2.27
